sensor_id;sensor_type;location;lat;lon;timestamp;temperature;humidity
19924;DHT22;10124;53.068;18.224;2023-04-24T00:02:09;13.80;1.00
19924;DHT22;10124;53.068;18.224;2023-04-24T00:04:38;12.70;1.00
19924;DHT22;10124;53.068;18.224;2023-04-24T00:07:12;12.70;1.00
19924;DHT22;10124;53.068;18.224;2023-04-24T00:09:40;14.10;1.00
19924;DHT22;10124;53.068;18.224;2023-04-24T00:12:07;14.50;1.00
19924;DHT22;10124;53.068;18.224;2023-04-24T00:14:35;14.00;1.00
19924;DHT22;10124;53.068;18.224;2023-04-24T00:17:02;12.60;1.00
19924;DHT22;10124;53.068;18.224;2023-04-24T00:19:30;12.60;1.00
19924;DHT22;10124;53.068;18.224;2023-04-24T00:21:57;12.70;99.90
19924;DHT22;10124;53.068;18.224;2023-04-24T00:24:25;13.70;1.00
19924;DHT22;10124;53.068;18.224;2023-04-24T00:26:52;12.10;1.00
19924;DHT22;10124;53.068;18.224;2023-04-24T00:29:19;15.00;1.00
19924;DHT22;10124;53.068;18.224;2023-04-24T00:31:46;12.60;99.90
19924;DHT22;10124;53.068;18.224;2023-04-24T00:34:14;12.70;1.00
19924;DHT22;10124;53.068;18.224;2023-04-24T00:36:41;12.60;1.00
19924;DHT22;10124;53.068;18.224;2023-04-24T00:39:08;13.90;1.00
19924;DHT22;10124;53.068;18.224;2023-04-24T00:41:35;12.60;1.00
19924;DHT22;10124;53.068;18.224;2023-04-24T00:44:03;12.60;1.00
19924;DHT22;10124;53.068;18.224;2023-04-24T00:46:30;12.60;1.00
19924;DHT22;10124;53.068;18.224;2023-04-24T00:48:59;12.60;1.00
19924;DHT22;10124;53.068;18.224;2023-04-24T00:51:26;14.00;99.90
19924;DHT22;10124;53.068;18.224;2023-04-24T00:53:54;12.80;1.00
19924;DHT22;10124;53.068;18.224;2023-04-24T00:56:22;12.40;99.90
19924;DHT22;10124;53.068;18.224;2023-04-24T00:58:50;12.90;1.00
19924;DHT22;10124;53.068;18.224;2023-04-24T01:01:21;13.70;1.00
19924;DHT22;10124;53.068;18.224;2023-04-24T01:03:51;13.40;1.00
19924;DHT22;10124;53.068;18.224;2023-04-24T01:06:19;12.80;1.00
19924;DHT22;10124;53.068;18.224;2023-04-24T01:08:47;12.50;99.90
19924;DHT22;10124;53.068;18.224;2023-04-24T01:11:15;12.50;1.00
19924;DHT22;10124;53.068;18.224;2023-04-24T01:13:45;12.50;1.00
19924;DHT22;10124;53.068;18.224;2023-04-24T01:16:14;12.50;1.00
19924;DHT22;10124;53.068;18.224;2023-04-24T01:18:42;13.60;99.90
19924;DHT22;10124;53.068;18.224;2023-04-24T01:21:14;12.50;99.90
19924;DHT22;10124;53.068;18.224;2023-04-24T01:23:45;13.40;72.10
19924;DHT22;10124;53.068;18.224;2023-04-24T01:26:16;14.60;99.90
19924;DHT22;10124;53.068;18.224;2023-04-24T01:28:44;12.50;99.90
19924;DHT22;10124;53.068;18.224;2023-04-24T01:33:41;12.40;1.00
19924;DHT22;10124;53.068;18.224;2023-04-24T01:36:11;12.40;1.00
19924;DHT22;10124;53.068;18.224;2023-04-24T01:38:38;14.50;1.00
19924;DHT22;10124;53.068;18.224;2023-04-24T01:41:05;13.00;99.90
19924;DHT22;10124;53.068;18.224;2023-04-24T01:43:32;12.30;99.90
19924;DHT22;10124;53.068;18.224;2023-04-24T01:46:00;12.40;99.90
19924;DHT22;10124;53.068;18.224;2023-04-24T01:48:27;12.30;99.90
19924;DHT22;10124;53.068;18.224;2023-04-24T01:50:55;12.30;99.90
19924;DHT22;10124;53.068;18.224;2023-04-24T01:53:23;12.30;1.00
19924;DHT22;10124;53.068;18.224;2023-04-24T01:55:50;13.70;1.00
19924;DHT22;10124;53.068;18.224;2023-04-24T01:58:18;13.80;99.90
19924;DHT22;10124;53.068;18.224;2023-04-24T02:00:45;12.20;99.90
19924;DHT22;10124;53.068;18.224;2023-04-24T02:03:14;12.20;99.90
19924;DHT22;10124;53.068;18.224;2023-04-24T02:05:44;12.20;99.90
19924;DHT22;10124;53.068;18.224;2023-04-24T02:08:12;14.10;1.00
19924;DHT22;10124;53.068;18.224;2023-04-24T02:10:39;13.90;1.00
19924;DHT22;10124;53.068;18.224;2023-04-24T02:13:07;12.10;1.00
19924;DHT22;10124;53.068;18.224;2023-04-24T02:15:34;12.10;99.90
19924;DHT22;10124;53.068;18.224;2023-04-24T02:18:03;14.40;1.00
19924;DHT22;10124;53.068;18.224;2023-04-24T02:20:31;12.10;99.90
19924;DHT22;10124;53.068;18.224;2023-04-24T02:23:01;12.10;36.70
19924;DHT22;10124;53.068;18.224;2023-04-24T02:25:28;12.10;1.00
19924;DHT22;10124;53.068;18.224;2023-04-24T02:27:55;12.10;1.00
19924;DHT22;10124;53.068;18.224;2023-04-24T02:30:22;11.80;99.90
19924;DHT22;10124;53.068;18.224;2023-04-24T02:32:50;14.30;99.90
19924;DHT22;10124;53.068;18.224;2023-04-24T02:35:17;12.10;1.00
19924;DHT22;10124;53.068;18.224;2023-04-24T02:37:45;14.30;1.00
19924;DHT22;10124;53.068;18.224;2023-04-24T02:40:12;12.90;1.00
19924;DHT22;10124;53.068;18.224;2023-04-24T02:42:39;12.00;99.90
19924;DHT22;10124;53.068;18.224;2023-04-24T02:45:07;12.00;20.00
19924;DHT22;10124;53.068;18.224;2023-04-24T02:47:34;12.10;99.90
19924;DHT22;10124;53.068;18.224;2023-04-24T02:50:02;11.90;99.90
19924;DHT22;10124;53.068;18.224;2023-04-24T02:54:57;12.00;99.90
19924;DHT22;10124;53.068;18.224;2023-04-24T02:57:25;12.00;1.00
19924;DHT22;10124;53.068;18.224;2023-04-24T02:59:52;14.10;99.90
19924;DHT22;10124;53.068;18.224;2023-04-24T03:02:19;13.00;1.00
19924;DHT22;10124;53.068;18.224;2023-04-24T03:04:48;12.60;99.90
19924;DHT22;10124;53.068;18.224;2023-04-24T03:07:15;11.60;1.00
19924;DHT22;10124;53.068;18.224;2023-04-24T03:19:34;12.00;1.00
19924;DHT22;10124;53.068;18.224;2023-04-24T03:22:09;12.10;1.00
19924;DHT22;10124;53.068;18.224;2023-04-24T03:24:37;12.10;99.90
19924;DHT22;10124;53.068;18.224;2023-04-24T03:27:05;13.40;1.00
19924;DHT22;10124;53.068;18.224;2023-04-24T03:29:46;13.80;1.00
19924;DHT22;10124;53.068;18.224;2023-04-24T03:32:15;12.00;1.00
19924;DHT22;10124;53.068;18.224;2023-04-24T03:34:42;12.80;1.00
19924;DHT22;10124;53.068;18.224;2023-04-24T03:37:14;12.00;1.00
19924;DHT22;10124;53.068;18.224;2023-04-24T03:39:49;12.30;8.80
19924;DHT22;10124;53.068;18.224;2023-04-24T03:42:22;13.80;63.60
19924;DHT22;10124;53.068;18.224;2023-04-24T03:44:53;12.00;99.90
19924;DHT22;10124;53.068;18.224;2023-04-24T03:47:25;12.10;1.00
19924;DHT22;10124;53.068;18.224;2023-04-24T03:49:55;12.00;99.90
19924;DHT22;10124;53.068;18.224;2023-04-24T03:52:23;12.00;99.90
19924;DHT22;10124;53.068;18.224;2023-04-24T03:54:51;12.00;99.90
19924;DHT22;10124;53.068;18.224;2023-04-24T03:57:18;12.20;1.00
19924;DHT22;10124;53.068;18.224;2023-04-24T04:02:26;12.10;1.00
19924;DHT22;10124;53.068;18.224;2023-04-24T04:04:53;12.10;99.90
19924;DHT22;10124;53.068;18.224;2023-04-24T04:07:21;12.10;1.00
19924;DHT22;10124;53.068;18.224;2023-04-24T04:12:17;12.30;1.00
19924;DHT22;10124;53.068;18.224;2023-04-24T04:14:44;12.20;1.00
19924;DHT22;10124;53.068;18.224;2023-04-24T04:19:42;12.60;1.00
19924;DHT22;10124;53.068;18.224;2023-04-24T04:22:10;11.90;1.00
19924;DHT22;10124;53.068;18.224;2023-04-24T04:27:10;12.20;99.90
19924;DHT22;10124;53.068;18.224;2023-04-24T04:29:46;14.00;1.00
19924;DHT22;10124;53.068;18.224;2023-04-24T04:32:15;12.40;1.00
19924;DHT22;10124;53.068;18.224;2023-04-24T04:34:43;12.40;1.00
19924;DHT22;10124;53.068;18.224;2023-04-24T04:42:21;12.40;1.00
19924;DHT22;10124;53.068;18.224;2023-04-24T04:47:24;13.10;99.90
19924;DHT22;10124;53.068;18.224;2023-04-24T04:49:53;12.40;1.00
19924;DHT22;10124;53.068;18.224;2023-04-24T04:52:24;12.60;1.00
19924;DHT22;10124;53.068;18.224;2023-04-24T04:55:10;12.30;1.00
19924;DHT22;10124;53.068;18.224;2023-04-24T04:58:04;12.70;1.00
19924;DHT22;10124;53.068;18.224;2023-04-24T05:00:32;12.70;99.90
19924;DHT22;10124;53.068;18.224;2023-04-24T05:03:08;12.70;96.70
19924;DHT22;10124;53.068;18.224;2023-04-24T05:05:47;12.50;78.10
19924;DHT22;10124;53.068;18.224;2023-04-24T05:08:17;13.60;1.00
19924;DHT22;10124;53.068;18.224;2023-04-24T05:10:54;12.90;99.90
19924;DHT22;10124;53.068;18.224;2023-04-24T05:13:23;13.20;1.00
19924;DHT22;10124;53.068;18.224;2023-04-24T05:15:53;13.70;1.00
19924;DHT22;10124;53.068;18.224;2023-04-24T05:18:21;12.60;19.70
19924;DHT22;10124;53.068;18.224;2023-04-24T05:20:49;13.10;10.10
19924;DHT22;10124;53.068;18.224;2023-04-24T05:23:16;13.60;10.80
19924;DHT22;10124;53.068;18.224;2023-04-24T05:25:47;13.20;7.40
19924;DHT22;10124;53.068;18.224;2023-04-24T05:33:16;13.50;1.00
19924;DHT22;10124;53.068;18.224;2023-04-24T05:35:43;14.30;1.00
19924;DHT22;10124;53.068;18.224;2023-04-24T05:38:14;14.00;1.00
19924;DHT22;10124;53.068;18.224;2023-04-24T05:40:44;13.40;1.00
19924;DHT22;10124;53.068;18.224;2023-04-24T05:43:12;13.60;1.00
19924;DHT22;10124;53.068;18.224;2023-04-24T05:45:39;14.90;1.00
19924;DHT22;10124;53.068;18.224;2023-04-24T05:48:07;13.70;1.00
19924;DHT22;10124;53.068;18.224;2023-04-24T05:50:34;13.80;1.00
19924;DHT22;10124;53.068;18.224;2023-04-24T05:53:03;13.90;1.00
19924;DHT22;10124;53.068;18.224;2023-04-24T05:55:34;14.00;1.00
19924;DHT22;10124;53.068;18.224;2023-04-24T05:58:01;13.90;1.00
19924;DHT22;10124;53.068;18.224;2023-04-24T06:00:29;14.50;1.00
19924;DHT22;10124;53.068;18.224;2023-04-24T06:03:05;14.60;1.00
19924;DHT22;10124;53.068;18.224;2023-04-24T06:05:32;14.90;1.00
19924;DHT22;10124;53.068;18.224;2023-04-24T06:08:02;15.10;1.00
19924;DHT22;10124;53.068;18.224;2023-04-24T06:10:35;15.20;1.00
19924;DHT22;10124;53.068;18.224;2023-04-24T06:13:04;15.70;1.00
19924;DHT22;10124;53.068;18.224;2023-04-24T06:15:33;15.80;1.00
19924;DHT22;10124;53.068;18.224;2023-04-24T06:18:06;15.10;1.00
19924;DHT22;10124;53.068;18.224;2023-04-24T06:23:03;15.80;1.00
19924;DHT22;10124;53.068;18.224;2023-04-24T06:25:33;14.90;1.00
19924;DHT22;10124;53.068;18.224;2023-04-24T06:28:00;15.30;1.00
19924;DHT22;10124;53.068;18.224;2023-04-24T06:30:30;15.20;1.00
19924;DHT22;10124;53.068;18.224;2023-04-24T06:32:57;16.00;1.00
19924;DHT22;10124;53.068;18.224;2023-04-24T06:35:45;15.40;1.00
19924;DHT22;10124;53.068;18.224;2023-04-24T06:38:12;16.20;1.00
19924;DHT22;10124;53.068;18.224;2023-04-24T06:40:39;15.10;1.00
19924;DHT22;10124;53.068;18.224;2023-04-24T06:50:30;16.20;1.00
19924;DHT22;10124;53.068;18.224;2023-04-24T06:55:25;16.20;1.00
19924;DHT22;10124;53.068;18.224;2023-04-24T06:57:53;16.70;1.00
19924;DHT22;10124;53.068;18.224;2023-04-24T07:05:16;15.90;1.00
19924;DHT22;10124;53.068;18.224;2023-04-24T07:10:16;15.80;1.00
19924;DHT22;10124;53.068;18.224;2023-04-24T07:22:43;17.40;1.00
19924;DHT22;10124;53.068;18.224;2023-04-24T07:25:11;16.90;1.00
19924;DHT22;10124;53.068;18.224;2023-04-24T07:30:06;16.30;1.00
19924;DHT22;10124;53.068;18.224;2023-04-24T07:37:29;17.00;1.00
19924;DHT22;10124;53.068;18.224;2023-04-24T07:44:52;16.60;1.00
19924;DHT22;10124;53.068;18.224;2023-04-24T07:47:21;16.30;1.00
19924;DHT22;10124;53.068;18.224;2023-04-24T08:09:32;16.80;1.00
19924;DHT22;10124;53.068;18.224;2023-04-24T08:12:00;16.40;1.00
19924;DHT22;10124;53.068;18.224;2023-04-24T08:21:52;17.50;1.00
19924;DHT22;10124;53.068;18.224;2023-04-24T08:24:19;16.90;1.00
19924;DHT22;10124;53.068;18.224;2023-04-24T08:29:17;17.30;1.00
19924;DHT22;10124;53.068;18.224;2023-04-24T08:31:44;17.40;1.00
19924;DHT22;10124;53.068;18.224;2023-04-24T08:36:40;18.00;1.00
19924;DHT22;10124;53.068;18.224;2023-04-24T08:39:13;17.50;1.00
19924;DHT22;10124;53.068;18.224;2023-04-24T08:41:42;18.70;1.00
19924;DHT22;10124;53.068;18.224;2023-04-24T08:44:13;17.50;1.00
19924;DHT22;10124;53.068;18.224;2023-04-24T08:46:43;18.20;1.00
19924;DHT22;10124;53.068;18.224;2023-04-24T08:49:15;18.20;1.00
19924;DHT22;10124;53.068;18.224;2023-04-24T08:51:46;18.10;1.00
19924;DHT22;10124;53.068;18.224;2023-04-24T08:54:14;17.70;1.00
19924;DHT22;10124;53.068;18.224;2023-04-24T08:56:44;17.30;1.00
19924;DHT22;10124;53.068;18.224;2023-04-24T09:01:40;17.10;1.00
19924;DHT22;10124;53.068;18.224;2023-04-24T09:04:09;17.30;1.00
19924;DHT22;10124;53.068;18.224;2023-04-24T09:14:01;17.00;1.00
19924;DHT22;10124;53.068;18.224;2023-04-24T09:21:32;17.10;1.00
19924;DHT22;10124;53.068;18.224;2023-04-24T09:24:03;17.00;1.00
19924;DHT22;10124;53.068;18.224;2023-04-24T09:29:01;17.00;1.00
19924;DHT22;10124;53.068;18.224;2023-04-24T09:31:29;16.90;1.00
19924;DHT22;10124;53.068;18.224;2023-04-24T09:33:59;17.10;1.00
19924;DHT22;10124;53.068;18.224;2023-04-24T09:36:33;17.50;1.00
19924;DHT22;10124;53.068;18.224;2023-04-24T09:44:17;17.90;1.00
19924;DHT22;10124;53.068;18.224;2023-04-24T09:46:46;17.90;1.00
19924;DHT22;10124;53.068;18.224;2023-04-24T09:49:24;18.20;1.00
19924;DHT22;10124;53.068;18.224;2023-04-24T09:54:21;18.30;1.00
19924;DHT22;10124;53.068;18.224;2023-04-24T09:56:50;18.60;1.00
19924;DHT22;10124;53.068;18.224;2023-04-24T09:59:19;19.00;1.00
19924;DHT22;10124;53.068;18.224;2023-04-24T10:01:47;19.80;1.00
19924;DHT22;10124;53.068;18.224;2023-04-24T10:04:24;19.90;1.00
19924;DHT22;10124;53.068;18.224;2023-04-24T10:06:54;20.70;1.00
19924;DHT22;10124;53.068;18.224;2023-04-24T10:09:23;21.00;1.00
19924;DHT22;10124;53.068;18.224;2023-04-24T10:11:53;21.30;99.90
19924;DHT22;10124;53.068;18.224;2023-04-24T10:14:22;20.90;99.90
19924;DHT22;10124;53.068;18.224;2023-04-24T10:16:53;19.90;99.90
19924;DHT22;10124;53.068;18.224;2023-04-24T10:24:18;19.80;99.90
19924;DHT22;10124;53.068;18.224;2023-04-24T10:29:18;19.90;99.90
19924;DHT22;10124;53.068;18.224;2023-04-24T10:34:16;20.40;99.90
19924;DHT22;10124;53.068;18.224;2023-04-24T10:39:20;21.30;99.90
19924;DHT22;10124;53.068;18.224;2023-04-24T10:44:36;21.70;99.90
19924;DHT22;10124;53.068;18.224;2023-04-24T10:47:03;22.00;99.90
19924;DHT22;10124;53.068;18.224;2023-04-24T10:49:31;23.20;99.90
19924;DHT22;10124;53.068;18.224;2023-04-24T10:52:03;24.50;1.00
19924;DHT22;10124;53.068;18.224;2023-04-24T10:54:41;26.00;1.00
19924;DHT22;10124;53.068;18.224;2023-04-24T10:59:51;24.20;1.00
19924;DHT22;10124;53.068;18.224;2023-04-24T11:02:38;23.60;1.00
19924;DHT22;10124;53.068;18.224;2023-04-24T11:05:09;22.60;1.00
19924;DHT22;10124;53.068;18.224;2023-04-24T11:08:09;22.30;1.00
19924;DHT22;10124;53.068;18.224;2023-04-24T11:10:59;21.80;1.00
19924;DHT22;10124;53.068;18.224;2023-04-24T11:18:52;20.90;1.00
19924;DHT22;10124;53.068;18.224;2023-04-24T11:21:40;20.70;1.00
19924;DHT22;10124;53.068;18.224;2023-04-24T11:26:56;20.10;1.00
19924;DHT22;10124;53.068;18.224;2023-04-24T11:35:00;20.40;1.00
19924;DHT22;10124;53.068;18.224;2023-04-24T11:37:41;21.30;1.00
19924;DHT22;10124;53.068;18.224;2023-04-24T11:40:13;21.60;1.00
19924;DHT22;10124;53.068;18.224;2023-04-24T11:42:46;21.40;1.00
19924;DHT22;10124;53.068;18.224;2023-04-24T11:45:16;21.40;1.00
19924;DHT22;10124;53.068;18.224;2023-04-24T11:47:44;21.20;1.00
19924;DHT22;10124;53.068;18.224;2023-04-24T11:50:14;21.00;1.00
19924;DHT22;10124;53.068;18.224;2023-04-24T11:52:46;20.80;1.00
19924;DHT22;10124;53.068;18.224;2023-04-24T11:57:45;21.40;1.00
19924;DHT22;10124;53.068;18.224;2023-04-24T12:00:19;20.60;1.00
19924;DHT22;10124;53.068;18.224;2023-04-24T12:02:47;20.90;1.00
19924;DHT22;10124;53.068;18.224;2023-04-24T12:05:20;22.20;1.00
19924;DHT22;10124;53.068;18.224;2023-04-24T12:10:21;20.50;1.00
19924;DHT22;10124;53.068;18.224;2023-04-24T12:12:49;21.00;1.00
19924;DHT22;10124;53.068;18.224;2023-04-24T12:17:54;21.10;1.00
19924;DHT22;10124;53.068;18.224;2023-04-24T12:20:30;21.00;1.00
19924;DHT22;10124;53.068;18.224;2023-04-24T12:23:00;21.30;1.00
19924;DHT22;10124;53.068;18.224;2023-04-24T12:25:29;21.50;1.00
19924;DHT22;10124;53.068;18.224;2023-04-24T12:30:35;21.90;1.00
19924;DHT22;10124;53.068;18.224;2023-04-24T12:35:33;21.60;1.00
19924;DHT22;10124;53.068;18.224;2023-04-24T12:38:09;21.80;1.00
19924;DHT22;10124;53.068;18.224;2023-04-24T12:58:08;22.30;1.00
19924;DHT22;10124;53.068;18.224;2023-04-24T13:00:36;21.90;1.00
19924;DHT22;10124;53.068;18.224;2023-04-24T13:03:04;21.90;1.00
19924;DHT22;10124;53.068;18.224;2023-04-24T13:05:32;21.50;1.00
19924;DHT22;10124;53.068;18.224;2023-04-24T13:07:59;21.10;1.00
19924;DHT22;10124;53.068;18.224;2023-04-24T13:10:27;20.90;1.00
19924;DHT22;10124;53.068;18.224;2023-04-24T13:12:54;20.90;1.00
19924;DHT22;10124;53.068;18.224;2023-04-24T13:17:50;19.70;1.00
19924;DHT22;10124;53.068;18.224;2023-04-24T13:22:46;19.20;1.00
19924;DHT22;10124;53.068;18.224;2023-04-24T13:25:13;18.50;1.00
19924;DHT22;10124;53.068;18.224;2023-04-24T13:27:44;18.90;1.00
19924;DHT22;10124;53.068;18.224;2023-04-24T13:30:11;19.60;1.00
19924;DHT22;10124;53.068;18.224;2023-04-24T13:32:39;19.10;1.00
19924;DHT22;10124;53.068;18.224;2023-04-24T13:35:07;19.10;1.00
19924;DHT22;10124;53.068;18.224;2023-04-24T13:40:02;19.20;1.00
19924;DHT22;10124;53.068;18.224;2023-04-24T13:42:33;19.10;1.00
19924;DHT22;10124;53.068;18.224;2023-04-24T13:45:01;19.10;1.00
19924;DHT22;10124;53.068;18.224;2023-04-24T13:47:48;19.30;1.00
19924;DHT22;10124;53.068;18.224;2023-04-24T13:50:18;19.40;1.00
19924;DHT22;10124;53.068;18.224;2023-04-24T13:52:45;19.30;37.00
19924;DHT22;10124;53.068;18.224;2023-04-24T13:55:13;19.20;99.90
19924;DHT22;10124;53.068;18.224;2023-04-24T13:57:40;19.30;99.90
19924;DHT22;10124;53.068;18.224;2023-04-24T14:00:08;19.30;99.90
19924;DHT22;10124;53.068;18.224;2023-04-24T14:02:37;19.40;99.90
19924;DHT22;10124;53.068;18.224;2023-04-24T14:05:05;19.60;99.90
19924;DHT22;10124;53.068;18.224;2023-04-24T14:07:33;19.60;99.90
19924;DHT22;10124;53.068;18.224;2023-04-24T14:10:01;19.70;99.90
19924;DHT22;10124;53.068;18.224;2023-04-24T14:14:56;19.80;99.90
19924;DHT22;10124;53.068;18.224;2023-04-24T14:17:23;20.00;99.90
19924;DHT22;10124;53.068;18.224;2023-04-24T14:19:51;20.10;99.90
19924;DHT22;10124;53.068;18.224;2023-04-24T14:22:23;20.20;14.70
19924;DHT22;10124;53.068;18.224;2023-04-24T14:24:51;20.30;6.30
19924;DHT22;10124;53.068;18.224;2023-04-24T14:27:18;20.50;1.00
19924;DHT22;10124;53.068;18.224;2023-04-24T14:29:46;20.40;1.00
19924;DHT22;10124;53.068;18.224;2023-04-24T14:32:13;20.40;1.00
19924;DHT22;10124;53.068;18.224;2023-04-24T14:34:42;20.60;1.00
19924;DHT22;10124;53.068;18.224;2023-04-24T14:37:09;20.60;1.00
19924;DHT22;10124;53.068;18.224;2023-04-24T14:39:37;20.60;1.00
19924;DHT22;10124;53.068;18.224;2023-04-24T14:42:04;20.70;1.00
19924;DHT22;10124;53.068;18.224;2023-04-24T14:44:33;20.80;1.00
19924;DHT22;10124;53.068;18.224;2023-04-24T14:47:01;20.80;1.00
19924;DHT22;10124;53.068;18.224;2023-04-24T14:49:29;20.90;1.00
19924;DHT22;10124;53.068;18.224;2023-04-24T14:51:58;21.10;1.00
19924;DHT22;10124;53.068;18.224;2023-04-24T14:54:27;21.00;1.00
19924;DHT22;10124;53.068;18.224;2023-04-24T14:56:54;21.10;1.00
19924;DHT22;10124;53.068;18.224;2023-04-24T14:59:24;20.90;1.00
19924;DHT22;10124;53.068;18.224;2023-04-24T15:01:53;21.00;1.00
19924;DHT22;10124;53.068;18.224;2023-04-24T15:04:42;20.90;1.00
19924;DHT22;10124;53.068;18.224;2023-04-24T15:07:10;20.50;1.00
19924;DHT22;10124;53.068;18.224;2023-04-24T15:09:38;20.50;1.00
19924;DHT22;10124;53.068;18.224;2023-04-24T15:12:06;20.30;1.00
19924;DHT22;10124;53.068;18.224;2023-04-24T15:14:34;20.10;1.00
19924;DHT22;10124;53.068;18.224;2023-04-24T15:17:02;19.90;1.00
19924;DHT22;10124;53.068;18.224;2023-04-24T15:19:31;20.00;21.70
19924;DHT22;10124;53.068;18.224;2023-04-24T15:21:59;20.40;49.60
19924;DHT22;10124;53.068;18.224;2023-04-24T15:24:27;19.80;35.20
19924;DHT22;10124;53.068;18.224;2023-04-24T15:26:55;20.00;34.20
19924;DHT22;10124;53.068;18.224;2023-04-24T15:29:27;20.00;30.10
19924;DHT22;10124;53.068;18.224;2023-04-24T15:31:57;19.50;94.40
19924;DHT22;10124;53.068;18.224;2023-04-24T15:34:25;19.80;97.50
19924;DHT22;10124;53.068;18.224;2023-04-24T15:36:53;19.90;91.80
19924;DHT22;10124;53.068;18.224;2023-04-24T15:39:24;19.90;99.90
19924;DHT22;10124;53.068;18.224;2023-04-24T15:51:48;18.90;99.90
19924;DHT22;10124;53.068;18.224;2023-04-24T15:54:15;18.40;99.90
19924;DHT22;10124;53.068;18.224;2023-04-24T15:56:43;18.00;99.90
19924;DHT22;10124;53.068;18.224;2023-04-24T16:01:40;18.90;99.90
19924;DHT22;10124;53.068;18.224;2023-04-24T16:04:08;18.10;99.90
19924;DHT22;10124;53.068;18.224;2023-04-24T16:06:37;18.30;99.90
19924;DHT22;10124;53.068;18.224;2023-04-24T16:09:08;18.40;99.90
19924;DHT22;10124;53.068;18.224;2023-04-24T16:14:06;18.40;99.90
19924;DHT22;10124;53.068;18.224;2023-04-24T16:19:04;18.90;99.90
19924;DHT22;10124;53.068;18.224;2023-04-24T16:21:34;18.10;99.90
19924;DHT22;10124;53.068;18.224;2023-04-24T16:24:02;18.40;99.90
19924;DHT22;10124;53.068;18.224;2023-04-24T16:26:30;19.00;99.90
19924;DHT22;10124;53.068;18.224;2023-04-24T16:31:26;18.90;99.90
19924;DHT22;10124;53.068;18.224;2023-04-24T16:33:54;17.90;99.90
19924;DHT22;10124;53.068;18.224;2023-04-24T16:36:22;18.60;99.90
19924;DHT22;10124;53.068;18.224;2023-04-24T16:38:50;18.40;99.90
19924;DHT22;10124;53.068;18.224;2023-04-24T16:41:18;18.30;99.90
19924;DHT22;10124;53.068;18.224;2023-04-24T16:43:46;18.10;99.90
19924;DHT22;10124;53.068;18.224;2023-04-24T16:46:13;17.50;99.90
19924;DHT22;10124;53.068;18.224;2023-04-24T16:48:41;17.30;99.90
19924;DHT22;10124;53.068;18.224;2023-04-24T16:51:09;17.20;99.90
19924;DHT22;10124;53.068;18.224;2023-04-24T16:53:37;17.00;1.00
19924;DHT22;10124;53.068;18.224;2023-04-24T16:56:05;16.10;1.00
19924;DHT22;10124;53.068;18.224;2023-04-24T17:01:03;15.60;1.00
19924;DHT22;10124;53.068;18.224;2023-04-24T17:06:00;15.20;1.00
19924;DHT22;10124;53.068;18.224;2023-04-24T17:08:28;15.30;1.00
19924;DHT22;10124;53.068;18.224;2023-04-24T17:10:59;15.10;1.00
19924;DHT22;10124;53.068;18.224;2023-04-24T17:15:56;15.00;1.00
19924;DHT22;10124;53.068;18.224;2023-04-24T17:18:24;15.00;1.00
19924;DHT22;10124;53.068;18.224;2023-04-24T17:20:52;14.90;1.00
19924;DHT22;10124;53.068;18.224;2023-04-24T17:23:20;14.90;1.00
19924;DHT22;10124;53.068;18.224;2023-04-24T17:25:47;14.80;1.00
19924;DHT22;10124;53.068;18.224;2023-04-24T17:28:32;14.70;1.00
19924;DHT22;10124;53.068;18.224;2023-04-24T17:31:00;14.70;1.00
19924;DHT22;10124;53.068;18.224;2023-04-24T17:33:29;14.50;1.00
19924;DHT22;10124;53.068;18.224;2023-04-24T17:35:58;14.50;1.00
19924;DHT22;10124;53.068;18.224;2023-04-24T17:38:28;14.50;1.00
19924;DHT22;10124;53.068;18.224;2023-04-24T17:40:55;14.50;1.00
19924;DHT22;10124;53.068;18.224;2023-04-24T17:43:25;14.50;1.00
19924;DHT22;10124;53.068;18.224;2023-04-24T17:45:53;14.10;1.00
19924;DHT22;10124;53.068;18.224;2023-04-24T17:48:26;14.40;1.00
19924;DHT22;10124;53.068;18.224;2023-04-24T17:50:53;14.40;1.00
19924;DHT22;10124;53.068;18.224;2023-04-24T17:53:21;15.40;1.00
19924;DHT22;10124;53.068;18.224;2023-04-24T17:55:49;14.20;1.00
19924;DHT22;10124;53.068;18.224;2023-04-24T17:58:17;14.40;1.00
19924;DHT22;10124;53.068;18.224;2023-04-24T18:00:45;14.40;1.00
19924;DHT22;10124;53.068;18.224;2023-04-24T18:03:13;14.30;1.00
19924;DHT22;10124;53.068;18.224;2023-04-24T18:05:41;14.30;1.00
19924;DHT22;10124;53.068;18.224;2023-04-24T18:08:09;14.30;1.00
19924;DHT22;10124;53.068;18.224;2023-04-24T18:10:36;14.10;1.00
19924;DHT22;10124;53.068;18.224;2023-04-24T18:13:04;14.10;1.00
19924;DHT22;10124;53.068;18.224;2023-04-24T18:15:32;14.10;1.00
19924;DHT22;10124;53.068;18.224;2023-04-24T18:18:02;13.90;1.00
19924;DHT22;10124;53.068;18.224;2023-04-24T18:20:30;13.80;1.00
19924;DHT22;10124;53.068;18.224;2023-04-24T18:23:00;14.20;1.00
19924;DHT22;10124;53.068;18.224;2023-04-24T18:25:30;13.70;1.00
19924;DHT22;10124;53.068;18.224;2023-04-24T18:27:58;14.40;1.00
19924;DHT22;10124;53.068;18.224;2023-04-24T18:30:25;13.60;1.00
19924;DHT22;10124;53.068;18.224;2023-04-24T18:32:54;13.50;1.00
19924;DHT22;10124;53.068;18.224;2023-04-24T18:35:22;13.50;1.00
19924;DHT22;10124;53.068;18.224;2023-04-24T18:37:50;13.50;1.00
19924;DHT22;10124;53.068;18.224;2023-04-24T18:40:18;13.50;1.00
19924;DHT22;10124;53.068;18.224;2023-04-24T18:42:46;13.60;1.00
19924;DHT22;10124;53.068;18.224;2023-04-24T18:45:14;13.50;1.00
19924;DHT22;10124;53.068;18.224;2023-04-24T18:47:42;13.40;1.00
19924;DHT22;10124;53.068;18.224;2023-04-24T18:50:10;13.40;1.00
19924;DHT22;10124;53.068;18.224;2023-04-24T18:52:39;13.40;1.00
19924;DHT22;10124;53.068;18.224;2023-04-24T18:55:06;12.70;1.00
19924;DHT22;10124;53.068;18.224;2023-04-24T19:00:02;13.60;1.00
19924;DHT22;10124;53.068;18.224;2023-04-24T19:02:31;12.90;1.00
19924;DHT22;10124;53.068;18.224;2023-04-24T19:05:02;13.10;1.00
19924;DHT22;10124;53.068;18.224;2023-04-24T19:07:30;13.60;1.00
19924;DHT22;10124;53.068;18.224;2023-04-24T19:09:58;13.60;1.00
19924;DHT22;10124;53.068;18.224;2023-04-24T19:12:26;14.00;1.00
19924;DHT22;10124;53.068;18.224;2023-04-24T19:17:24;13.90;1.00
19924;DHT22;10124;53.068;18.224;2023-04-24T19:19:52;13.60;1.00
19924;DHT22;10124;53.068;18.224;2023-04-24T19:22:20;13.00;1.00
19924;DHT22;10124;53.068;18.224;2023-04-24T19:24:48;13.40;1.00
19924;DHT22;10124;53.068;18.224;2023-04-24T19:29:43;13.40;1.00
19924;DHT22;10124;53.068;18.224;2023-04-24T19:32:11;12.70;1.00
19924;DHT22;10124;53.068;18.224;2023-04-24T19:34:39;13.50;1.00
19924;DHT22;10124;53.068;18.224;2023-04-24T19:37:08;12.60;1.00
19924;DHT22;10124;53.068;18.224;2023-04-24T19:39:36;12.70;1.00
19924;DHT22;10124;53.068;18.224;2023-04-24T19:44:34;12.50;1.00
19924;DHT22;10124;53.068;18.224;2023-04-24T19:47:02;13.20;1.00